Marigola — IBEL — position and weather

sailwx.info

Track history (hours):
 
Tides and Currents Weather Stations Pressure Air Temp Water Temp Dewpoint Dewpoint Depression Visibility Wind Speed Wind Dir Waves Ship Positions

Marigola

Last reported at 2015-Jul-25 11:33 UTC. Time now 2015-Aug-02 10:20 UTC.
Position S 24°29' W 046°10'.

Length 145 m; draft 6.7 m.

Type: Ship (hazmat cat A). MMSI: 247567000.

Date/timePositionNaut miles runAvg speedWind from/ knotsBaromVisibWave heightAir tempDewpointWater temp
2015-Jul-25 11:33S 24°29' W 046°10'1414.5
2015-Jul-25 10:34S 24°17' W 046°19'1312.9
2015-Jul-25 09:33S 24°05' W 046°22'8 7.5
2015-Jul-25 08:33S 23°58' W 046°18'5 0.2
2015-Jul-24 09:03S 23°55' W 046°22'4 7.1
2015-Jul-24 08:30S 23°57' W 046°18'7 7.3
2015-Jul-24 07:34S 24°03' W 046°22'4 3.5
2015-Jul-24 06:32S 24°07' W 046°21'0 0.0
2015-Jul-24 05:32S 24°07' W 046°21'0 0.0
2015-Jul-24 04:32S 24°07' W 046°21'0 0.0
2015-Jul-24 03:28S 24°07' W 046°21'0 0.0
2015-Jul-24 02:31S 24°07' W 046°21'0 0.0
2015-Jul-24 01:25S 24°07' W 046°21'0 0.0
2015-Jul-24 00:22S 24°07' W 046°21'0 0.0
2015-Jul-23 23:31S 24°07' W 046°21'0 0.0
2015-Jul-23 22:32S 24°07' W 046°21'0 0.0
2015-Jul-23 21:26S 24°07' W 046°21'1 1.1
2015-Jul-23 20:33S 24°08' W 046°21'1211.9
2015-Jul-23 19:33S 24°19' W 046°17'  
Track history (hours):
 
Tides and Currents Weather Stations Pressure Air Temp Water Temp Dewpoint Dewpoint Depression Visibility Wind Speed Wind Dir Waves Ship Positions

Marigola

Last reported at 2015-Jul-25 11:33 UTC. Time now 2015-Aug-02 10:20 UTC.
Position S 24°29' W 046°10'.

Length 145 m; draft 6.7 m.

Type: Ship (hazmat cat A). MMSI: 247567000.

Date/timePositionNaut miles runAvg speedWind from/ knotsBaromVisibWave heightAir tempDewpointWater temp
2015-Jul-25 11:33S 24°29' W 046°10'1414.5
2015-Jul-25 10:34S 24°17' W 046°19'1312.9
2015-Jul-25 09:33S 24°05' W 046°22'8 7.5
2015-Jul-25 08:33S 23°58' W 046°18'5 0.2
2015-Jul-24 09:03S 23°55' W 046°22'4 7.1
2015-Jul-24 08:30S 23°57' W 046°18'7 7.3
2015-Jul-24 07:34S 24°03' W 046°22'4 3.5
2015-Jul-24 06:32S 24°07' W 046°21'0 0.0
2015-Jul-24 05:32S 24°07' W 046°21'0 0.0
2015-Jul-24 04:32S 24°07' W 046°21'0 0.0
2015-Jul-24 03:28S 24°07' W 046°21'0 0.0
2015-Jul-24 02:31S 24°07' W 046°21'0 0.0
2015-Jul-24 01:25S 24°07' W 046°21'0 0.0
2015-Jul-24 00:22S 24°07' W 046°21'0 0.0
2015-Jul-23 23:31S 24°07' W 046°21'0 0.0
2015-Jul-23 22:32S 24°07' W 046°21'0 0.0
2015-Jul-23 21:26S 24°07' W 046°21'1 1.1
2015-Jul-23 20:33S 24°08' W 046°21'1211.9
2015-Jul-23 19:33S 24°19' W 046°17'  

Dump ship's entire track history